• Join FlightAware (Why Join?)
  • Login
  • US Flag 
10:11PM EDT


 

Airport Tracker/Info


-or-


 

Live Flight TrackerFlight Track Log ✈ N152SR ✈ 30-Aug-2013 ✈ KMTP - KCDW

Flight Track Log - Related Links

Times and Time Zones

All times are in EDT time to prevent confusion due to time zone crossing. See the N152SR flight status page for this flight to view local times or setup timezone preferences in your user account.

Time Position Orientation Groundspeed Altitude Reporting Facility
EDT Latitude Longitude Course Direction KTS MPH feet Rate Location/Type
12:28PM 41.1053 -71.9828 320° Northwest 91 105 2,600  Level Boston Center
12:30PM 41.1325 -72.0131 320° Northwest 114 131 3,900 1,080 Climbing Boston Center
12:31PM 41.1556 -72.0375 321° Northwest 98 113 5,000 1,020 Climbing Boston Center
12:32PM 41.3058 -72.1796 320° Northwest  Level FlightAware Approximate
12:32PM 41.1786 -72.0594 324° Northwest 102 117 6,000  Level Boston Center
12:33PM 41.2058 -72.0925 318° Northwest 155 178 6,000  Level Boston Center
12:34PM 41.2453 -72.1281 326° Northwest 157 181 6,000  Level Boston Center
12:35PM 41.2808 -72.1667 321° Northwest 167 192 6,000  Level Boston Center
12:36PM 41.3164 -72.2053 321° Northwest 164 189 6,000  Level Boston Center
12:37PM 41.3478 -72.2411 319° Northwest 158 182 6,000 60 Level Boston Center
12:37PM 41.3708 -72.2631 324° Northwest 158 182 6,100  Climbing Boston Center
12:38PM 41.4083 -72.3017 322° Northwest 169 194 6,000 -60 Descending Boston Center
12:39PM 41.4439 -72.3403 321° Northwest 165 190 6,000  Level Boston Center
12:40PM 41.4814 -72.3819 320° Northwest 164 189 6,000  Level Boston Center
12:41PM 41.4981 -72.4372 292° West 167 192 6,000  Level Boston Center
12:42PM 41.4981 -72.4928 270° West 163 188 6,000  Level Boston Center
12:43PM 41.5292 -72.5206 326° Northwest 156 180 6,000  Level Boston Center
12:44PM 41.5689 -72.5483 332° Northwest 158 182 6,000  Level Boston Center
12:45PM 41.6106 -72.5761 334° Northwest 160 184 6,000  Level Boston Center
12:46PM 41.6311 -72.6178 303° West 163 188 6,000  Level Boston Center
12:47PM 41.6081 -72.6817 244° Southwest 168 193 6,100  Climbing Boston Center
12:50PM 41.5667 -72.8167 248° West 170 196 6,000 -60 Descending New York TRACON
12:51PM 41.5500 -72.8667 246° West 173 199 6,000  Level New York TRACON
12:52PM 41.5167 -72.9167 228° Southwest 166 191 6,000  Level New York TRACON
12:53PM 41.5000 -72.9833 252° West 163 188 6,000  Level New York TRACON
12:54PM 41.4833 -73.0333 246° West 166 191 6,000  Level New York TRACON
12:55PM 41.4667 -73.0833 246° West 169 194 6,000  Level New York TRACON
12:56PM 41.4333 -73.1500 236° Southwest 166 191 6,000  Level New York TRACON
12:57PM 41.4167 -73.1833 236° Southwest 168 193 6,000  Level New York TRACON
12:58PM 41.4000 -73.2500 252° West 167 192 6,000  Level New York TRACON
12:59PM 41.3833 -73.3000 246° West 169 194 6,000  Level New York TRACON
01:00PM 41.3667 -73.3667 252° West 168 193 6,000  Level New York TRACON
01:01PM 41.3333 -73.4167 228° Southwest 167 192 6,000  Level New York TRACON
01:02PM 41.3167 -73.4667 246° West 168 193 6,000  Level New York TRACON
01:03PM 41.3000 -73.5333 252° West 167 192 6,000  Level New York TRACON
01:04PM 41.2833 -73.5833 246° West 170 196 6,000  Level New York TRACON
01:05PM 41.2667 -73.6333 246° West 165 190 6,000 -120 Level New York TRACON
01:06PM 41.2500 -73.7000 252° West 174 200 5,800 -600 Descending New York TRACON
01:07PM 41.2333 -73.7500 246° West 191 220 4,900 -1,020 Descending New York TRACON
01:08PM 41.2000 -73.8000 228° Southwest 176 203 3,800 -1,020 Descending New York TRACON
01:09PM 41.1667 -73.8500 228° Southwest 167 192 2,900 -660 Descending New York TRACON
01:10PM 41.1333 -73.9000 228° Southwest 165 190 2,500 -240 Descending New York TRACON
01:11PM 41.1000 -73.9500 229° Southwest 163 188 2,500  Level New York TRACON
01:12PM 41.0667 -73.9833 217° Southwest 160 184 2,500  Level New York TRACON
01:13PM 41.0500 -74.0333 246° West 161 185 2,500  Level New York TRACON
01:14PM 41.0167 -74.0667 217° Southwest 160 184 2,500  Level New York TRACON
01:15PM 40.9833 -74.1167 229° Southwest 160 184 2,500 -240 Level New York TRACON
01:16PM 40.9500 -74.1667 229° Southwest 163 188 2,100 -480 Descending New York TRACON
01:17PM 40.9333 -74.2167 246° West 158 182 1,600 -480 Descending New York TRACON
01:18PM 40.9167 -74.2500 237° Southwest 132 152 1,200 -420 Descending New York TRACON
01:20PM 40.8746 -74.2640 194° South  Level FlightAware Approximate
01:27PM 40.8667 -74.2667 225° Southwest  Level FlightAware Approximate
01:28PM 40.8752 -74.2814 225° Southwest  Level Estimated
01:29PM 40.8752 -74.2814 225° Southwest  Level Estimated
01:30PM 40.8752 -74.2814 225° Southwest  Level Estimated